createdAt,value
2023-08-12T00:00:12.606Z,9.18
2023-08-12T00:02:41.862Z,9.43
2023-08-12T00:05:09.801Z,9.48
2023-08-12T00:07:37.106Z,9.13
2023-08-12T00:10:05.819Z,9.35
2023-08-12T00:12:33.884Z,9.50
2023-08-12T00:15:01.550Z,10.27
2023-08-12T00:17:33.019Z,9.43
2023-08-12T00:20:00.852Z,9.90
2023-08-12T00:22:28.043Z,9.73
2023-08-12T00:24:55.451Z,9.75
2023-08-12T00:27:22.680Z,10.13
2023-08-12T00:29:50.196Z,10.98
2023-08-12T00:32:17.466Z,10.75
2023-08-12T00:34:44.795Z,11.00
2023-08-12T00:37:12.500Z,10.25
2023-08-12T00:39:39.963Z,11.18
2023-08-12T00:42:07.162Z,11.20
2023-08-12T00:44:34.412Z,10.65
2023-08-12T00:47:03.083Z,11.05
2023-08-12T00:49:32.641Z,10.70
2023-08-12T00:52:00.837Z,11.88
2023-08-12T00:54:29.172Z,12.25
2023-08-12T00:56:57.058Z,11.98
2023-08-12T00:59:25.164Z,12.10
2023-08-12T01:01:52.433Z,12.88
2023-08-12T01:04:19.944Z,13.73
2023-08-12T01:06:47.292Z,13.90
2023-08-12T01:09:14.732Z,12.18
2023-08-12T01:12:01.165Z,11.80
2023-08-12T01:14:40.877Z,10.88
2023-08-12T01:17:09.931Z,11.02
2023-08-12T01:19:40.306Z,11.15
2023-08-12T01:22:12.030Z,10.57
2023-08-12T01:24:41.054Z,11.65
2023-08-12T01:27:09.948Z,11.85
2023-08-12T01:29:47.989Z,11.77
2023-08-12T01:32:38.707Z,11.18
2023-08-12T01:35:18.810Z,12.00
2023-08-12T01:37:47.289Z,10.80
2023-08-12T01:40:16.443Z,10.70
2023-08-12T01:42:44.215Z,10.77
2023-08-12T01:45:12.113Z,11.48
2023-08-12T01:47:39.705Z,13.38
2023-08-12T01:50:07.821Z,11.13
2023-08-12T01:52:35.053Z,11.73
2023-08-12T01:55:02.483Z,10.18
2023-08-12T01:57:31.864Z,10.63
2023-08-12T01:59:59.161Z,10.88
2023-08-12T02:02:26.412Z,10.32
2023-08-12T02:04:53.711Z,10.25
2023-08-12T02:07:21.297Z,9.93
2023-08-12T02:09:48.536Z,9.32
2023-08-12T02:12:15.907Z,10.10
2023-08-12T02:14:43.230Z,10.82
2023-08-12T02:17:10.920Z,10.98
2023-08-12T02:22:11.622Z,11.95
2023-08-12T02:24:39.010Z,9.90
2023-08-12T02:27:06.458Z,10.05
2023-08-12T02:29:34.348Z,10.00
2023-08-12T02:32:01.774Z,10.57
2023-08-12T02:34:29.242Z,10.60
2023-08-12T02:36:56.545Z,9.88
2023-08-12T02:39:23.856Z,9.57
2023-08-12T02:41:51.182Z,9.43
2023-08-12T02:44:18.846Z,9.43
2023-08-12T02:46:46.192Z,9.38
2023-08-12T02:49:13.609Z,10.18
2023-08-12T02:51:40.860Z,9.80
2023-08-12T02:54:08.266Z,8.65
2023-08-12T02:56:35.608Z,9.50
2023-08-12T02:59:02.967Z,9.60
2023-08-12T03:01:31.423Z,9.15
2023-08-12T03:03:58.665Z,9.40
2023-08-12T03:06:26.116Z,9.88
2023-08-12T03:08:53.350Z,9.27
2023-08-12T03:11:20.739Z,10.77
2023-08-12T03:13:48.116Z,9.20
2023-08-12T03:16:16.546Z,9.45
2023-08-12T03:18:44.027Z,8.73
2023-08-12T03:21:11.813Z,9.23
2023-08-12T03:23:39.450Z,11.52
2023-08-12T03:26:06.903Z,9.25
2023-08-12T03:28:34.075Z,9.82
2023-08-12T03:31:01.400Z,9.60
2023-08-12T03:33:28.781Z,9.73
2023-08-12T03:35:56.406Z,10.00
2023-08-12T03:38:23.724Z,9.90
2023-08-12T03:40:51.748Z,10.23
2023-08-12T03:43:19.040Z,10.43
2023-08-12T03:45:47.226Z,10.07
2023-08-12T03:48:14.548Z,11.05
2023-08-12T03:50:43.608Z,11.48
2023-08-12T03:53:10.876Z,11.75
2023-08-12T03:55:38.318Z,11.00
2023-08-12T03:58:06.138Z,10.50
2023-08-12T04:00:33.474Z,9.57
2023-08-12T04:03:01.066Z,9.18
2023-08-12T04:05:28.447Z,9.50
2023-08-12T04:07:55.680Z,8.98
2023-08-12T04:10:22.945Z,8.90
2023-08-12T04:12:50.183Z,9.43
2023-08-12T04:15:17.811Z,8.90
2023-08-12T04:17:45.483Z,8.43
2023-08-12T04:20:13.004Z,8.95
2023-08-12T04:22:40.326Z,9.35
2023-08-12T04:25:08.068Z,9.10
2023-08-12T04:27:35.391Z,9.38
2023-08-12T04:30:02.754Z,10.10
2023-08-12T04:32:34.506Z,9.25
2023-08-12T04:35:02.065Z,9.35
2023-08-12T04:37:33.388Z,9.35
2023-08-12T04:40:00.618Z,9.27
2023-08-12T04:42:27.896Z,8.05
2023-08-12T04:44:55.272Z,9.00
2023-08-12T04:47:22.724Z,8.48
2023-08-12T04:49:50.064Z,9.05
2023-08-12T04:52:17.359Z,8.70
2023-08-12T04:54:44.884Z,8.60
2023-08-12T04:57:12.249Z,8.35
2023-08-12T04:59:39.625Z,8.93
2023-08-12T05:02:06.884Z,8.68
2023-08-12T05:04:34.306Z,8.52
2023-08-12T05:07:01.823Z,8.30
2023-08-12T05:09:29.055Z,8.68
2023-08-12T05:11:56.349Z,8.38
2023-08-12T05:14:23.711Z,8.57
2023-08-12T05:16:50.901Z,9.13
2023-08-12T05:19:18.037Z,8.75
2023-08-12T05:21:45.387Z,8.45
2023-08-12T05:24:12.697Z,8.50
2023-08-12T05:26:39.907Z,7.95
2023-08-12T05:29:07.174Z,8.23
2023-08-12T05:31:34.461Z,8.52
2023-08-12T05:34:01.968Z,8.73
2023-08-12T05:36:29.166Z,8.07
2023-08-12T05:38:56.547Z,7.90
2023-08-12T05:41:24.045Z,8.07
2023-08-12T05:43:51.449Z,8.93
2023-08-12T05:46:18.760Z,9.25
2023-08-12T05:48:46.115Z,8.48
2023-08-12T05:51:13.418Z,8.30
2023-08-12T05:53:40.795Z,8.80
2023-08-12T05:56:08.111Z,8.18
2023-08-12T05:58:35.305Z,9.70
2023-08-12T06:01:02.804Z,8.35
2023-08-12T06:03:30.231Z,8.45
2023-08-12T06:05:57.590Z,9.15
2023-08-12T06:08:24.788Z,8.77
2023-08-12T06:10:52.051Z,8.60
2023-08-12T06:13:19.537Z,8.38
2023-08-12T06:15:47.562Z,8.65
2023-08-12T06:18:14.824Z,8.38
2023-08-12T06:20:42.305Z,8.95
2023-08-12T06:23:09.658Z,8.77
2023-08-12T06:25:37.823Z,8.55
2023-08-12T06:28:05.836Z,9.50
2023-08-12T06:30:33.182Z,9.10
2023-08-12T06:33:00.740Z,9.98
2023-08-12T06:35:28.265Z,8.75
2023-08-12T06:37:55.676Z,9.68
2023-08-12T06:40:23.023Z,7.43
2023-08-12T06:42:50.215Z,8.25
2023-08-12T06:45:17.428Z,7.55
2023-08-12T06:47:44.663Z,7.55
2023-08-12T06:50:11.939Z,8.43
2023-08-12T06:52:39.251Z,8.68
2023-08-12T06:55:07.507Z,8.02
2023-08-12T06:57:35.149Z,9.98
2023-08-12T07:00:02.661Z,8.38
2023-08-12T07:02:33.340Z,8.73
2023-08-12T07:05:00.607Z,8.52
2023-08-12T07:07:27.906Z,8.57
2023-08-12T07:09:55.488Z,8.05
2023-08-12T07:12:22.707Z,9.07
2023-08-12T07:14:50.185Z,9.45
2023-08-12T07:17:17.404Z,8.40
2023-08-12T07:19:44.656Z,8.50
2023-08-12T07:22:12.217Z,8.65
2023-08-12T07:24:39.856Z,7.82
2023-08-12T07:27:08.055Z,7.60
2023-08-12T07:29:35.593Z,7.97
2023-08-12T07:32:02.829Z,7.85
2023-08-12T07:34:31.706Z,7.60
2023-08-12T07:36:59.262Z,8.73
2023-08-12T07:39:26.484Z,8.23
2023-08-12T07:41:53.803Z,8.43
2023-08-12T07:44:21.139Z,7.88
2023-08-12T07:46:48.725Z,7.60
2023-08-12T07:49:17.365Z,7.90
2023-08-12T07:51:44.744Z,7.70
2023-08-12T07:54:12.037Z,7.65
2023-08-12T07:56:39.389Z,8.13
2023-08-12T07:59:06.645Z,7.93
2023-08-12T08:01:35.505Z,7.43
2023-08-12T08:04:05.007Z,8.30
2023-08-12T08:06:32.406Z,7.50
2023-08-12T08:08:59.991Z,7.70
2023-08-12T08:11:27.211Z,7.72
2023-08-12T08:13:54.486Z,8.57
2023-08-12T08:16:22.185Z,8.05
2023-08-12T08:18:49.474Z,8.85
2023-08-12T08:21:17.069Z,8.32
2023-08-12T08:23:45.764Z,8.73
2023-08-12T08:26:14.535Z,8.07
2023-08-12T08:28:41.796Z,8.50
2023-08-12T08:31:09.159Z,7.80
2023-08-12T08:33:36.642Z,8.93
2023-08-12T08:36:04.130Z,8.73
2023-08-12T08:38:31.651Z,8.50
2023-08-12T08:40:59.611Z,8.68
2023-08-12T08:43:29.388Z,8.38
2023-08-12T08:45:57.816Z,8.07
2023-08-12T08:48:25.801Z,8.35
2023-08-12T08:50:54.694Z,8.50
2023-08-12T08:53:22.561Z,8.85
2023-08-12T08:55:50.086Z,9.40
2023-08-12T08:58:22.267Z,8.85
2023-08-12T09:03:18.212Z,9.65
2023-08-12T09:05:46.182Z,9.68
2023-08-12T09:08:14.354Z,9.13
2023-08-12T09:10:42.892Z,9.57
2023-08-12T09:13:10.649Z,8.77
2023-08-12T09:15:38.382Z,9.40
2023-08-12T09:18:08.937Z,9.98
2023-08-12T09:20:36.420Z,9.82
2023-08-12T09:23:04.670Z,9.38
2023-08-12T09:25:32.221Z,9.07
2023-08-12T09:28:03.342Z,9.50
2023-08-12T09:30:34.398Z,8.57
2023-08-12T09:33:09.798Z,9.18
2023-08-12T09:35:42.495Z,9.65
2023-08-12T09:38:14.534Z,9.52
2023-08-12T09:40:41.932Z,8.73
2023-08-12T09:43:10.472Z,8.90
2023-08-12T09:45:38.521Z,9.35
2023-08-12T09:48:06.997Z,9.38
2023-08-12T09:50:34.291Z,9.05
2023-08-12T09:53:04.388Z,8.88
2023-08-12T09:55:35.805Z,9.40
2023-08-12T09:58:05.219Z,8.68
2023-08-12T10:00:32.802Z,9.43
2023-08-12T10:03:02.459Z,9.05
2023-08-12T10:05:33.606Z,10.02
2023-08-12T10:08:03.118Z,9.77
2023-08-12T10:10:33.143Z,9.75
2023-08-12T10:13:00.915Z,10.13
2023-08-12T10:15:28.522Z,10.30
2023-08-12T10:17:58.292Z,9.80
2023-08-12T10:20:26.943Z,9.90
2023-08-12T10:22:56.060Z,9.25
2023-08-12T10:25:25.056Z,9.40
2023-08-12T10:27:52.476Z,9.82
2023-08-12T10:30:22.062Z,9.13
2023-08-12T10:32:49.558Z,9.77
2023-08-12T10:35:16.917Z,8.93
2023-08-12T10:37:51.803Z,10.20
2023-08-12T10:40:24.168Z,9.50
2023-08-12T10:42:52.364Z,9.10
2023-08-12T10:45:20.273Z,9.07
2023-08-12T10:48:16.522Z,9.82
2023-08-12T10:50:53.066Z,9.63
2023-08-12T10:53:31.238Z,9.98
2023-08-12T10:56:00.718Z,10.00
2023-08-12T10:58:30.850Z,11.43
2023-08-12T11:00:59.283Z,10.50
2023-08-12T11:03:27.115Z,10.57
2023-08-12T11:05:58.703Z,11.68
2023-08-12T11:08:28.043Z,10.95
2023-08-12T11:10:58.639Z,9.55
2023-08-12T11:13:28.941Z,10.02
2023-08-12T11:16:11.850Z,10.05
2023-08-12T11:18:39.328Z,9.38
2023-08-12T11:21:07.419Z,9.55
2023-08-12T11:23:34.862Z,9.13
2023-08-12T11:26:02.783Z,9.15
2023-08-12T11:28:30.224Z,9.07
2023-08-12T11:30:57.941Z,9.82
2023-08-12T11:33:25.599Z,10.10
2023-08-12T11:35:53.163Z,10.00
2023-08-12T11:38:20.719Z,10.63
2023-08-12T11:40:48.152Z,10.82
2023-08-12T11:43:16.975Z,11.63
2023-08-12T11:45:44.513Z,11.88
2023-08-12T11:48:12.197Z,11.15
2023-08-12T11:50:40.214Z,11.73
2023-08-12T11:53:07.918Z,11.35
2023-08-12T11:55:35.680Z,11.65
2023-08-12T11:58:03.425Z,12.75
2023-08-12T12:00:30.862Z,11.65
2023-08-12T12:02:58.588Z,11.27
2023-08-12T12:05:31.483Z,11.77
2023-08-12T12:08:00.450Z,10.88
2023-08-12T12:10:34.969Z,11.48
2023-08-12T12:13:05.529Z,11.63
2023-08-12T12:15:40.742Z,12.05
2023-08-12T12:18:14.555Z,12.00
2023-08-12T12:21:00.708Z,11.73
2023-08-12T12:23:32.162Z,10.93
2023-08-12T12:26:02.968Z,11.55
2023-08-12T12:28:31.813Z,11.02
2023-08-12T12:30:59.286Z,9.40
2023-08-12T12:33:26.755Z,10.02
2023-08-12T12:35:58.654Z,10.15
2023-08-12T12:38:28.036Z,9.45
2023-08-12T12:40:55.483Z,10.13
2023-08-12T12:43:22.882Z,10.82
2023-08-12T12:45:50.565Z,10.43
2023-08-12T12:48:18.123Z,9.75
2023-08-12T12:50:45.623Z,10.65
2023-08-12T12:53:12.852Z,9.82
2023-08-12T12:55:40.236Z,9.70
2023-08-12T12:58:08.393Z,9.60
2023-08-12T13:00:36.651Z,8.88
2023-08-12T13:03:04.302Z,9.50
2023-08-12T13:05:31.581Z,9.10
2023-08-12T13:07:58.929Z,9.05
2023-08-12T13:10:26.211Z,8.85
2023-08-12T13:12:53.446Z,9.23
2023-08-12T13:15:20.955Z,8.98
2023-08-12T13:17:48.466Z,9.02
2023-08-12T13:20:16.001Z,9.20
2023-08-12T13:22:43.300Z,9.02
2023-08-12T13:25:10.833Z,9.32
2023-08-12T13:27:38.384Z,10.20
2023-08-12T13:30:06.835Z,9.20
2023-08-12T13:32:34.181Z,9.57
2023-08-12T13:35:01.573Z,9.85
2023-08-12T13:37:29.497Z,10.05
2023-08-12T13:39:56.752Z,9.65
2023-08-12T13:42:24.009Z,9.48
2023-08-12T13:44:51.429Z,10.20
2023-08-12T13:47:18.754Z,10.07
2023-08-12T13:49:46.043Z,10.95
2023-08-12T13:52:13.478Z,10.50
2023-08-12T13:54:40.888Z,11.30
2023-08-12T13:57:08.258Z,10.52
2023-08-12T13:59:35.485Z,10.77
2023-08-12T14:02:02.698Z,12.85
2023-08-12T14:04:29.978Z,12.02
2023-08-12T14:06:57.327Z,14.18
2023-08-12T14:09:24.839Z,15.32
2023-08-12T14:11:52.159Z,16.02
2023-08-12T14:14:19.565Z,13.38
2023-08-12T14:16:46.885Z,13.93
2023-08-12T14:19:17.791Z,12.07
2023-08-12T14:21:45.209Z,11.35
2023-08-12T14:24:12.497Z,12.27
2023-08-12T14:26:39.980Z,11.32
2023-08-12T14:29:08.168Z,10.85
2023-08-12T14:31:35.794Z,10.45
2023-08-12T14:34:04.438Z,10.60
2023-08-12T14:36:33.009Z,9.93
2023-08-12T14:39:00.207Z,10.27
2023-08-12T14:41:27.440Z,8.90
2023-08-12T14:43:54.868Z,8.60
2023-08-12T14:46:22.377Z,8.50
2023-08-12T14:48:49.708Z,8.57
2023-08-12T14:51:17.031Z,7.78
2023-08-12T14:53:44.344Z,7.85
2023-08-12T14:56:11.734Z,7.88
2023-08-12T14:58:39.041Z,8.32
2023-08-12T15:01:06.483Z,7.93
2023-08-12T15:03:33.999Z,7.72
2023-08-12T15:06:05.042Z,7.32
2023-08-12T15:08:32.937Z,7.50
2023-08-12T15:11:00.360Z,7.60
2023-08-12T15:13:27.738Z,7.40
2023-08-12T15:15:55.098Z,7.30
2023-08-12T15:18:22.534Z,7.13
2023-08-12T15:20:49.783Z,6.40
2023-08-12T15:23:17.182Z,6.82
2023-08-12T15:25:45.997Z,6.30
2023-08-12T15:28:14.631Z,6.10
2023-08-12T15:30:43.242Z,5.90
2023-08-12T15:33:10.845Z,6.15
2023-08-12T15:35:38.194Z,5.82
2023-08-12T15:38:05.372Z,5.72
2023-08-12T15:40:32.601Z,6.45
2023-08-12T15:42:59.946Z,5.70
2023-08-12T15:45:28.362Z,5.97
2023-08-12T15:47:55.748Z,5.82
2023-08-12T15:50:23.357Z,6.43
2023-08-12T15:52:50.597Z,6.35
2023-08-12T15:55:17.893Z,6.63
2023-08-12T15:57:45.330Z,7.07
2023-08-12T16:00:12.887Z,7.03
2023-08-12T16:02:40.454Z,6.80
2023-08-12T16:05:08.312Z,7.45
2023-08-12T16:07:35.667Z,7.40
2023-08-12T16:10:03.090Z,7.53
2023-08-12T16:12:31.927Z,7.38
2023-08-12T16:15:00.176Z,7.32
2023-08-12T16:17:27.951Z,7.93
2023-08-12T16:19:55.259Z,7.95
2023-08-12T16:22:22.569Z,7.63
2023-08-12T16:24:49.883Z,8.00
2023-08-12T16:27:17.266Z,8.00
2023-08-12T16:29:44.710Z,8.65
2023-08-12T16:32:12.403Z,8.30
2023-08-12T16:34:39.920Z,8.48
2023-08-12T16:37:20.226Z,9.05
2023-08-12T16:39:49.132Z,9.35
2023-08-12T16:42:16.692Z,9.88
2023-08-12T16:44:44.061Z,9.20
2023-08-12T16:47:11.579Z,8.57
2023-08-12T16:49:38.854Z,8.70
2023-08-12T16:52:06.433Z,9.32
2023-08-12T16:54:33.786Z,9.43
2023-08-12T16:57:01.049Z,9.82
2023-08-12T16:59:28.266Z,9.90
2023-08-12T17:01:55.821Z,9.57
2023-08-12T17:04:23.027Z,9.27
2023-08-12T17:06:50.284Z,9.52
2023-08-12T17:09:17.779Z,9.25
2023-08-12T17:11:45.395Z,9.60
2023-08-12T17:14:12.786Z,9.20
2023-08-12T17:16:40.333Z,9.60
2023-08-12T17:19:07.717Z,9.57
2023-08-12T17:21:35.212Z,10.45
2023-08-12T17:24:02.616Z,10.05
2023-08-12T17:26:30.085Z,9.82
2023-08-12T17:28:57.381Z,10.18
2023-08-12T17:31:24.748Z,10.27
2023-08-12T17:33:52.026Z,10.52
2023-08-12T17:36:19.409Z,10.23
2023-08-12T17:38:46.648Z,10.27
2023-08-12T17:41:13.904Z,9.23
2023-08-12T17:43:44.868Z,9.13
2023-08-12T17:46:14.140Z,9.50
2023-08-12T17:48:41.620Z,8.80
2023-08-12T17:51:16.180Z,9.27
2023-08-12T17:53:46.775Z,9.15
2023-08-12T17:56:18.312Z,9.15
2023-08-12T17:58:46.066Z,9.35
2023-08-12T18:01:13.467Z,10.05
2023-08-12T18:03:40.856Z,10.02
2023-08-12T18:06:08.588Z,10.35
2023-08-12T18:08:36.468Z,10.48
2023-08-12T18:11:04.282Z,9.60
2023-08-12T18:13:31.722Z,9.68
2023-08-12T18:16:01.338Z,10.25
2023-08-12T18:18:28.829Z,9.95
2023-08-12T18:20:56.196Z,9.95
2023-08-12T18:23:23.804Z,10.45
2023-08-12T18:25:51.225Z,10.13
2023-08-12T18:28:18.481Z,9.82
2023-08-12T18:30:45.862Z,10.40
2023-08-12T18:33:13.241Z,10.40
2023-08-12T18:35:40.647Z,10.95
2023-08-12T18:38:07.844Z,10.63
2023-08-12T18:40:35.116Z,10.38
2023-08-12T18:43:03.817Z,9.13
2023-08-12T18:45:31.163Z,10.60
2023-08-12T18:47:58.730Z,10.13
2023-08-12T18:50:26.010Z,10.02
2023-08-12T18:52:53.590Z,9.77
2023-08-12T18:55:22.401Z,10.48
2023-08-12T18:57:51.209Z,10.25
2023-08-12T19:00:20.541Z,10.38
2023-08-12T19:02:47.773Z,10.63
2023-08-12T19:05:15.169Z,10.73
2023-08-12T19:07:42.344Z,11.52
2023-08-12T19:10:10.160Z,11.10
2023-08-12T19:12:37.808Z,11.32
2023-08-12T19:15:06.299Z,11.13
2023-08-12T19:17:33.793Z,10.70
2023-08-12T19:20:01.132Z,11.00
2023-08-12T19:22:30.437Z,11.30
2023-08-12T19:24:57.750Z,11.35
2023-08-12T19:27:25.217Z,11.05
2023-08-12T19:29:52.590Z,11.40
2023-08-12T19:32:19.803Z,11.93
2023-08-12T19:34:47.058Z,11.82
2023-08-12T19:37:14.298Z,11.43
2023-08-12T19:39:41.618Z,11.07
2023-08-12T19:42:09.029Z,12.05
2023-08-12T19:44:36.435Z,11.48
2023-08-12T19:47:03.853Z,12.27
2023-08-12T19:49:31.545Z,11.20
2023-08-12T19:51:58.901Z,11.85
2023-08-12T19:54:27.570Z,11.50
2023-08-12T19:56:54.864Z,11.18
2023-08-12T19:59:22.269Z,11.50
2023-08-12T20:01:49.707Z,11.95
2023-08-12T20:04:16.990Z,11.60
2023-08-12T20:06:44.407Z,12.43
2023-08-12T20:09:11.669Z,11.95
2023-08-12T20:11:38.930Z,11.63
2023-08-12T20:14:06.365Z,12.35
2023-08-12T20:16:34.025Z,11.93
2023-08-12T20:19:01.230Z,11.55
2023-08-12T20:21:28.599Z,11.23
2023-08-12T20:23:55.884Z,10.77
2023-08-12T20:26:24.487Z,11.48
2023-08-12T20:28:51.683Z,11.10
2023-08-12T20:31:20.133Z,10.57
2023-08-12T20:33:47.638Z,11.13
2023-08-12T20:36:15.091Z,10.55
2023-08-12T20:38:42.894Z,11.30
2023-08-12T20:41:10.342Z,11.40
2023-08-12T20:43:37.650Z,11.30
2023-08-12T20:46:06.466Z,12.07
2023-08-12T20:48:33.934Z,11.40
2023-08-12T20:51:01.423Z,11.75
2023-08-12T20:53:29.964Z,11.45
2023-08-12T20:55:57.340Z,11.68
2023-08-12T20:58:24.694Z,10.65
2023-08-12T21:00:52.012Z,11.00
2023-08-12T21:03:19.367Z,10.90
2023-08-12T21:05:51.777Z,11.63
2023-08-12T21:08:19.041Z,11.18
2023-08-12T21:10:55.679Z,11.70
2023-08-12T21:13:23.734Z,10.95
2023-08-12T21:15:51.208Z,10.45
2023-08-12T21:18:18.634Z,10.93
2023-08-12T21:20:46.160Z,10.77
2023-08-12T21:23:13.772Z,10.77
2023-08-12T21:25:41.036Z,11.23
2023-08-12T21:28:08.209Z,11.32
2023-08-12T21:30:35.364Z,10.65
2023-08-12T21:33:02.657Z,11.43
2023-08-12T21:35:30.107Z,11.27
2023-08-12T21:37:57.561Z,11.57
2023-08-12T21:40:28.329Z,11.38
2023-08-12T21:42:55.542Z,12.20
2023-08-12T21:45:23.040Z,12.23
2023-08-12T21:47:50.406Z,11.70
2023-08-12T21:50:17.777Z,11.82
2023-08-12T21:52:44.927Z,11.52
2023-08-12T21:55:13.766Z,11.68
2023-08-12T21:57:41.456Z,11.98
2023-08-12T22:00:13.133Z,11.63
2023-08-12T22:02:41.105Z,11.82
2023-08-12T22:05:08.784Z,11.43
2023-08-12T22:07:36.042Z,12.00
2023-08-12T22:10:04.048Z,11.40
2023-08-12T22:12:33.136Z,12.32
2023-08-12T22:15:00.734Z,11.45
2023-08-12T22:17:29.545Z,11.85
2023-08-12T22:19:56.825Z,12.02
2023-08-12T22:22:24.285Z,11.70
2023-08-12T22:24:51.824Z,12.20
2023-08-12T22:27:19.026Z,11.65
2023-08-12T22:29:46.262Z,11.93
2023-08-12T22:32:13.882Z,11.75
2023-08-12T22:34:41.392Z,12.15
2023-08-12T22:37:11.129Z,11.40
2023-08-12T22:39:39.164Z,11.65
2023-08-12T22:42:06.649Z,10.52
2023-08-12T22:44:33.981Z,11.05
2023-08-12T22:47:01.340Z,11.95
2023-08-12T22:49:28.744Z,10.77
2023-08-12T22:51:55.991Z,10.93
2023-08-12T22:54:23.300Z,12.43
2023-08-12T22:56:50.937Z,11.65
2023-08-12T22:59:19.167Z,12.15
2023-08-12T23:01:46.666Z,11.50
2023-08-12T23:04:13.988Z,11.02
2023-08-12T23:06:41.206Z,12.20
2023-08-12T23:09:08.421Z,11.88
2023-08-12T23:11:35.730Z,11.45
2023-08-12T23:14:03.194Z,12.38
2023-08-12T23:16:30.963Z,12.32
2023-08-12T23:18:58.253Z,11.98
2023-08-12T23:21:25.650Z,11.70
2023-08-12T23:23:53.091Z,11.18
2023-08-12T23:26:20.326Z,11.82
2023-08-12T23:28:47.579Z,11.40
2023-08-12T23:31:14.939Z,11.65
2023-08-12T23:33:42.319Z,10.85
2023-08-12T23:36:09.695Z,11.40
2023-08-12T23:38:36.970Z,10.90
2023-08-12T23:41:04.225Z,11.07
2023-08-12T23:43:31.476Z,11.13
2023-08-12T23:46:01.907Z,11.65
2023-08-12T23:48:29.282Z,11.57
2023-08-12T23:50:56.768Z,11.55
2023-08-12T23:53:24.262Z,11.32
2023-08-12T23:55:51.565Z,10.90
2023-08-12T23:58:18.931Z,11.50
